Time;durP1;ratioP1;P1;durP2;ratioP2;P2;SDS_P1;SDS_P2;PMS_P1;PMS_P2;Temp;Humidity;BMP_temperature;BMP_pressure;BME280_temperature;BME280_humidity;BME280_pressure;Samples;Min_cycle;Max_cycle;Signal;HPM_P1;HPM_P2
2022/06/20 00:00:22;;;;;;;5.57;2.03;;;14.10;99.90;;;;;;4954658;28;20235;-49
2022/06/20 00:02:54;;;;;;;7.13;1.90;;;14.10;99.90;;;;;;4954162;28;20242;-48
2022/06/20 00:05:25;;;;;;;5.90;1.63;;;14.10;99.90;;;;;;4954379;28;20349;-51
2022/06/20 00:07:54;;;;;;;4.77;1.67;;;14.20;99.90;;;;;;4954889;28;20232;-51
2022/06/20 00:10:24;;;;;;;5.47;1.60;;;14.10;99.90;;;;;;4954303;28;20729;-48
2022/06/20 00:12:53;;;;;;;6.47;1.97;;;14.10;99.90;;;;;;4954611;29;20227;-48
2022/06/20 00:15:26;;;;;;;6.47;1.77;;;14.10;99.90;;;;;;4954483;28;20318;-49
2022/06/20 00:17:57;;;;;;;7.60;1.70;;;14.10;99.90;;;;;;4954735;29;20699;-49
2022/06/20 00:20:25;;;;;;;8.30;1.87;;;14.20;99.90;;;;;;4954519;28;20242;-50
2022/06/20 00:22:54;;;;;;;4.10;1.50;;;14.10;99.90;;;;;;4965237;28;20289;-49
2022/06/20 00:25:23;;;;;;;6.13;1.80;;;14.10;99.90;;;;;;4970603;28;20234;-50
2022/06/20 00:27:53;;;;;;;6.63;1.90;;;14.10;99.90;;;;;;4957890;28;20233;-51
2022/06/20 00:30:22;;;;;;;6.63;1.60;;;14.10;99.90;;;;;;4954540;29;20310;-49
2022/06/20 00:32:50;;;;;;;5.87;1.70;;;14.00;99.90;;;;;;4953920;28;20246;-50
2022/06/20 00:35:21;;;;;;;5.90;1.47;;;14.10;99.90;;;;;;4962219;28;20234;-50
2022/06/20 00:37:50;;;;;;;7.30;2.00;;;14.10;99.90;;;;;;4954239;28;20235;-51
2022/06/20 00:40:24;;;;;;;6.27;2.03;;;14.00;99.90;;;;;;4954074;29;20243;-51
2022/06/20 00:42:53;;;;;;;5.00;1.77;;;14.00;99.90;;;;;;4954104;28;20265;-50
2022/06/20 00:45:23;;;;;;;7.30;1.67;;;14.00;99.90;;;;;;4953742;28;20234;-49
2022/06/20 00:47:53;;;;;;;4.53;1.67;;;14.00;99.90;;;;;;4954132;29;20235;-49
2022/06/20 00:50:27;;;;;;;5.87;1.33;;;14.00;99.90;;;;;;4954102;29;20212;-50
2022/06/20 00:53:00;;;;;;;5.37;1.50;;;14.00;99.90;;;;;;4964934;28;20266;-49
2022/06/20 00:55:34;;;;;;;7.10;2.00;;;14.00;99.90;;;;;;4971880;28;20238;-51
2022/06/20 00:58:06;;;;;;;5.27;1.90;;;14.00;99.90;;;;;;4956067;28;20223;-49
2022/06/20 01:00:38;;;;;;;6.60;1.83;;;14.00;99.90;;;;;;4954124;28;20273;-50
2022/06/20 01:03:13;;;;;;;4.27;1.70;;;14.00;99.90;;;;;;4953451;28;20243;-51
2022/06/20 01:05:51;;;;;;;5.53;1.57;;;14.00;99.90;;;;;;4954211;29;20230;-49
2022/06/20 01:08:22;;;;;;;7.27;1.87;;;14.00;99.90;;;;;;4935190;28;20243;-48
2022/06/20 01:10:53;;;;;;;4.87;1.70;;;14.00;99.90;;;;;;4945333;29;20240;-49
2022/06/20 01:13:23;;;;;;;8.07;2.10;;;14.00;99.90;;;;;;4953886;28;20232;-51
2022/06/20 01:15:54;;;;;;;4.30;1.90;;;13.90;99.90;;;;;;4956517;28;20274;-48
2022/06/20 01:18:26;;;;;;;7.53;2.13;;;14.10;99.90;;;;;;4957333;29;20334;-49
2022/06/20 01:20:59;;;;;;;5.33;1.83;;;14.00;99.90;;;;;;4957342;28;20242;-48
2022/06/20 01:23:36;;;;;;;4.73;1.67;;;13.90;99.90;;;;;;4968579;28;20638;-49
2022/06/20 01:26:17;;;;;;;6.20;2.13;;;13.90;99.90;;;;;;4975057;28;20706;-51
2022/06/20 01:28:49;;;;;;;6.33;1.70;;;13.90;99.90;;;;;;4949560;29;20240;-50
2022/06/20 01:31:20;;;;;;;8.33;2.20;;;13.90;99.90;;;;;;4957251;28;20691;-49
2022/06/20 01:33:50;;;;;;;7.17;1.90;;;13.80;99.90;;;;;;4956860;28;20711;-52
2022/06/20 01:39:06;;;;;;;6.73;1.93;;;13.80;99.90;;;;;;4956963;29;20710;-49
2022/06/20 01:44:23;;;;;;;5.17;1.90;;;13.70;99.90;;;;;;4956653;28;20269;-51
2022/06/20 01:46:51;;;;;;;7.47;1.83;;;13.70;99.90;;;;;;4956793;28;20329;-48
2022/06/20 01:49:23;;;;;;;5.47;1.53;;;13.60;99.90;;;;;;4956867;28;20235;-49
2022/06/20 01:51:56;;;;;;;8.83;2.17;;;13.70;99.90;;;;;;4964383;28;20586;-49
2022/06/20 01:54:26;;;;;;;5.53;1.70;;;13.60;99.90;;;;;;4967861;28;20238;-49
2022/06/20 01:56:55;;;;;;;5.40;2.03;;;13.70;99.90;;;;;;4967867;28;20710;-51
2022/06/20 01:59:31;;;;;;;7.83;2.37;;;13.70;99.90;;;;;;4956346;28;20233;-50
2022/06/20 02:01:59;;;;;;;6.33;1.87;;;13.60;99.90;;;;;;4962219;28;20229;-51
2022/06/20 02:04:31;;;;;;;5.03;1.93;;;13.50;99.90;;;;;;4957401;28;20710;-49
2022/06/20 02:07:02;;;;;;;4.40;1.67;;;13.50;99.90;;;;;;4956684;29;20227;-49
2022/06/20 02:09:30;;;;;;;6.63;2.17;;;13.40;99.90;;;;;;4956433;28;20228;-49
2022/06/20 02:12:00;;;;;;;4.47;1.93;;;13.40;99.90;;;;;;4956614;28;20306;-51
2022/06/20 02:14:35;;;;;;;4.57;1.70;;;13.40;99.90;;;;;;4956194;28;20314;-51
2022/06/20 02:17:07;;;;;;;8.03;1.83;;;13.40;99.90;;;;;;4956664;29;20233;-49
2022/06/20 02:19:40;;;;;;;5.57;1.80;;;13.30;99.90;;;;;;4956103;29;20286;-49
2022/06/20 02:22:10;;;;;;;7.33;1.70;;;13.30;99.90;;;;;;4966214;28;20222;-51
2022/06/20 02:24:41;;;;;;;5.80;1.97;;;13.30;99.90;;;;;;4967535;28;20690;-49
2022/06/20 02:27:14;;;;;;;4.23;1.77;;;13.30;99.90;;;;;;4964278;28;20702;-50
2022/06/20 02:29:43;;;;;;;5.40;1.97;;;13.30;99.90;;;;;;4955713;28;20239;-48
2022/06/20 02:32:16;;;;;;;3.47;1.70;;;13.40;99.90;;;;;;4955921;28;20229;-50
2022/06/20 02:34:45;;;;;;;8.63;2.30;;;13.30;99.90;;;;;;4956143;29;20899;-51
2022/06/20 02:37:20;;;;;;;5.57;1.83;;;13.30;99.90;;;;;;4956103;28;20223;-50
2022/06/20 02:39:51;;;;;;;5.17;2.20;;;13.20;99.90;;;;;;4955519;28;20230;-48
2022/06/20 02:42:26;;;;;;;7.67;1.97;;;13.20;99.90;;;;;;4954324;29;20310;-49
2022/06/20 02:44:57;;;;;;;5.77;1.90;;;13.20;99.90;;;;;;4956129;28;20721;-48
2022/06/20 02:47:27;;;;;;;6.07;1.90;;;13.20;99.90;;;;;;4955654;28;20298;-47
2022/06/20 02:49:58;;;;;;;5.50;1.93;;;13.30;99.90;;;;;;4955646;28;20239;-48
2022/06/20 02:52:33;;;;;;;4.53;2.00;;;13.30;99.90;;;;;;4966327;28;20291;-48
2022/06/20 02:55:03;;;;;;;5.80;1.63;;;13.30;99.90;;;;;;4969937;28;20703;-52
2022/06/20 02:57:35;;;;;;;4.23;1.97;;;13.30;99.90;;;;;;4961433;28;20235;-49
2022/06/20 03:00:13;;;;;;;6.27;2.00;;;13.30;99.90;;;;;;4955151;28;20707;-48
2022/06/20 03:02:44;;;;;;;7.30;2.60;;;13.30;99.90;;;;;;4955036;28;20266;-48
2022/06/20 03:05:13;;;;;;;7.90;2.40;;;13.20;99.90;;;;;;4955362;29;20948;-50
2022/06/20 03:07:44;;;;;;;5.60;2.20;;;13.20;99.90;;;;;;4955566;29;20729;-48
2022/06/20 03:10:21;;;;;;;6.37;2.20;;;13.20;99.90;;;;;;4955520;28;20256;-49
2022/06/20 03:12:49;;;;;;;6.17;2.60;;;13.20;99.90;;;;;;4955210;28;20691;-52
2022/06/20 03:15:20;;;;;;;7.93;2.10;;;13.20;99.90;;;;;;4955588;28;20722;-50
2022/06/20 03:17:50;;;;;;;7.33;2.40;;;13.20;99.90;;;;;;4955131;28;20725;-52
2022/06/20 03:20:21;;;;;;;6.83;2.50;;;13.30;99.90;;;;;;4955097;28;20237;-49
2022/06/20 03:22:53;;;;;;;5.80;2.47;;;13.20;99.90;;;;;;4955085;28;20234;-49
2022/06/20 03:25:23;;;;;;;5.07;1.97;;;13.20;99.90;;;;;;4955182;28;20282;-50
2022/06/20 03:27:52;;;;;;;7.43;2.67;;;13.20;99.90;;;;;;4954916;28;20318;-49
2022/06/20 03:30:33;;;;;;;6.30;2.27;;;13.10;99.90;;;;;;4954278;28;20241;-49
2022/06/20 03:33:07;;;;;;;7.90;2.30;;;13.10;99.90;;;;;;4954908;28;20797;-49
2022/06/20 03:35:36;;;;;;;6.37;2.50;;;13.20;99.90;;;;;;4954992;29;20226;-51
2022/06/20 03:38:07;;;;;;;8.33;2.60;;;13.20;99.90;;;;;;4964124;28;20277;-50
2022/06/20 03:40:39;;;;;;;6.57;2.23;;;13.30;99.90;;;;;;4959707;28;20966;-50
2022/06/20 03:43:11;;;;;;;5.57;2.20;;;13.40;99.90;;;;;;4956564;28;20294;-48
2022/06/20 03:45:46;;;;;;;5.90;2.27;;;13.40;99.90;;;;;;4956659;28;20241;-50
2022/06/20 03:48:17;;;;;;;5.30;2.07;;;13.50;99.90;;;;;;4954703;28;20233;-50
2022/06/20 03:50:49;;;;;;;5.00;2.13;;;13.50;99.90;;;;;;4954870;28;20717;-51
2022/06/20 03:53:23;;;;;;;6.50;2.30;;;13.50;99.90;;;;;;4955098;28;20345;-51
2022/06/20 03:56:16;;;;;;;5.77;2.40;;;13.50;99.90;;;;;;4959095;28;20309;-52
2022/06/20 03:58:49;;;;;;;6.80;2.07;;;13.40;99.90;;;;;;4966986;28;20710;-53
2022/06/20 04:01:25;;;;;;;6.47;2.50;;;13.50;99.90;;;;;;4964722;28;20254;-51
2022/06/20 04:03:59;;;;;;;4.23;2.13;;;13.40;99.90;;;;;;4963941;28;20640;-52
2022/06/20 04:06:35;;;;;;;5.43;2.20;;;13.50;99.90;;;;;;4961683;28;20238;-51
2022/06/20 04:12:06;;;;;;;5.67;2.27;;;13.50;99.90;;;;;;4954390;29;20222;-50
2022/06/20 04:14:46;;;;;;;5.30;2.30;;;13.60;99.90;;;;;;4954558;28;20237;-52
2022/06/20 04:20:19;;;;;;;7.87;2.27;;;13.70;99.90;;;;;;4954577;28;20223;-52
2022/06/20 04:22:50;;;;;;;6.03;2.10;;;14.00;99.90;;;;;;4954451;29;20757;-51
2022/06/20 04:25:28;;;;;;;8.17;3.13;;;14.20;99.90;;;;;;4954245;29;20272;-50
2022/06/20 04:28:04;;;;;;;5.03;2.10;;;14.30;99.90;;;;;;4951439;28;20262;-51
2022/06/20 04:30:38;;;;;;;7.30;2.10;;;14.30;99.90;;;;;;4954191;29;20235;-49
2022/06/20 04:33:14;;;;;;;7.37;2.23;;;14.30;99.90;;;;;;4953597;28;20241;-49
2022/06/20 04:35:46;;;;;;;7.27;2.30;;;14.30;99.90;;;;;;4954575;28;20711;-52
2022/06/20 04:38:20;;;;;;;9.27;2.63;;;14.20;99.90;;;;;;4954023;28;20227;-48
2022/06/20 04:40:56;;;;;;;5.47;2.00;;;14.20;99.90;;;;;;4954015;29;20584;-50
2022/06/20 04:43:31;;;;;;;5.80;2.10;;;14.10;99.90;;;;;;4954120;29;20234;-51
2022/06/20 04:46:04;;;;;;;5.90;2.00;;;14.10;99.90;;;;;;4954492;28;20561;-50
2022/06/20 04:48:34;;;;;;;9.67;2.50;;;14.20;99.90;;;;;;4953786;28;20234;-49
2022/06/20 04:51:07;;;;;;;12.43;2.70;;;14.20;99.90;;;;;;4957550;29;20586;-50
2022/06/20 04:53:40;;;;;;;7.63;2.60;;;14.30;99.90;;;;;;4959465;28;20231;-48
2022/06/20 04:56:11;;;;;;;7.13;2.30;;;14.30;99.90;;;;;;4962287;28;20701;-48
2022/06/20 04:58:44;;;;;;;7.43;2.17;;;14.30;99.90;;;;;;4957688;28;20631;-49
2022/06/20 05:01:13;;;;;;;7.77;2.23;;;14.40;99.90;;;;;;4957746;28;20590;-48
2022/06/20 05:03:46;;;;;;;7.17;2.50;;;14.40;99.90;;;;;;4962112;28;20244;-50
2022/06/20 05:06:19;;;;;;;8.57;2.50;;;14.40;99.90;;;;;;4970555;28;20274;-50
2022/06/20 05:08:51;;;;;;;7.97;2.23;;;14.50;99.90;;;;;;4957317;29;20238;-50
2022/06/20 05:11:24;;;;;;;7.67;2.50;;;14.50;99.90;;;;;;4956693;29;20265;-52
2022/06/20 05:13:58;;;;;;;7.13;2.60;;;14.50;99.90;;;;;;4957530;28;20268;-49
2022/06/20 05:16:31;;;;;;;5.50;2.20;;;14.60;99.90;;;;;;4956835;29;20233;-49
2022/06/20 05:19:05;;;;;;;7.70;2.27;;;14.50;99.90;;;;;;4953403;28;20575;-49
2022/06/20 05:21:38;;;;;;;9.40;2.23;;;14.50;99.90;;;;;;4955325;29;20254;-50
2022/06/20 05:24:11;;;;;;;5.67;1.93;;;14.50;99.90;;;;;;4944919;29;20239;-49
2022/06/20 05:26:41;;;;;;;7.37;1.97;;;14.60;99.90;;;;;;4963487;28;20270;-50
2022/06/20 05:29:17;;;;;;;6.73;2.10;;;14.60;99.90;;;;;;4956988;28;20239;-48
2022/06/20 05:31:53;;;;;;;5.10;2.20;;;14.60;99.90;;;;;;4952320;28;20219;-48
2022/06/20 05:34:27;;;;;;;6.23;2.10;;;14.50;99.90;;;;;;4954382;28;20243;-49
2022/06/20 05:37:05;;;;;;;6.60;2.37;;;14.60;99.90;;;;;;4955023;28;20314;-49
2022/06/20 05:39:38;;;;;;;6.50;1.90;;;14.60;99.90;;;;;;4956439;28;20584;-52
2022/06/20 05:42:11;;;;;;;6.77;2.47;;;14.60;99.90;;;;;;4961343;28;20657;-50
2022/06/20 05:44:39;;;;;;;6.90;2.00;;;14.60;99.90;;;;;;4956601;28;20571;-50
2022/06/20 05:47:17;;;;;;;7.57;2.53;;;14.70;99.90;;;;;;4956551;28;20578;-51
2022/06/20 05:49:51;;;;;;;6.40;2.07;;;14.70;99.90;;;;;;4952325;28;20318;-50
2022/06/20 05:52:25;;;;;;;5.10;2.27;;;14.80;99.90;;;;;;4956560;28;20270;-50
2022/06/20 05:54:57;;;;;;;6.37;1.93;;;15.00;99.90;;;;;;4961536;28;20574;-49
2022/06/20 05:57:28;;;;;;;6.63;1.87;;;15.20;99.90;;;;;;4958336;28;20235;-51
2022/06/20 06:00:00;;;;;;;9.30;2.83;;;15.30;99.90;;;;;;4956182;28;20282;-48
2022/06/20 06:02:34;;;;;;;8.87;2.60;;;15.40;99.90;;;;;;4953891;28;20234;-51
2022/06/20 06:05:10;;;;;;;6.20;2.27;;;15.60;99.90;;;;;;4958860;28;20646;-50
2022/06/20 06:07:45;;;;;;;5.50;2.30;;;15.70;99.90;;;;;;4955606;28;20227;-52
2022/06/20 06:10:34;;;;;;;8.83;3.23;;;15.70;99.90;;;;;;4959170;28;20270;-51
2022/06/20 06:13:12;;;;;;;7.50;2.17;;;15.90;99.90;;;;;;4956211;29;20223;-50
2022/06/20 06:16:46;;;;;;;8.10;2.70;;;16.20;99.90;;;;;;4960804;28;20281;-52
2022/06/20 06:18:39;;;;;;;7.43;2.40;;;16.70;99.90;;;;;;4956312;28;20239;-51
2022/06/20 06:21:09;;;;;;;8.30;2.53;;;16.90;99.90;;;;;;4955823;29;20228;-51
2022/06/20 06:23:38;;;;;;;7.40;1.83;;;16.80;99.90;;;;;;4960153;28;20235;-51
2022/06/20 06:26:08;;;;;;;4.93;1.60;;;16.70;99.90;;;;;;4962860;28;20243;-50
2022/06/20 06:28:36;;;;;;;5.63;1.97;;;16.90;99.90;;;;;;4961472;28;20337;-50
2022/06/20 06:31:10;;;;;;;5.73;1.97;;;17.40;99.90;;;;;;4958581;28;20584;-53
2022/06/20 06:33:43;;;;;;;7.40;2.10;;;17.90;99.90;;;;;;4954780;28;20242;-49
2022/06/20 06:36:17;;;;;;;6.73;1.67;;;18.10;99.90;;;;;;4954722;28;20608;-52
2022/06/20 06:38:50;;;;;;;6.60;1.73;;;18.40;99.90;;;;;;4954856;28;20655;-50
2022/06/20 06:41:24;;;;;;;7.87;1.77;;;18.60;99.90;;;;;;4958296;28;20230;-52
2022/06/20 06:43:54;;;;;;;4.23;1.60;;;18.80;99.90;;;;;;4955367;28;20331;-52
2022/06/20 06:46:27;;;;;;;3.87;1.60;;;19.00;99.90;;;;;;4954502;28;20558;-50
2022/06/20 06:49:09;;;;;;;8.10;1.80;;;19.10;99.90;;;;;;4954588;28;20593;-52
2022/06/20 06:51:46;;;;;;;5.53;1.70;;;19.10;99.90;;;;;;4954743;28;20706;-52
2022/06/20 06:54:19;;;;;;;6.93;1.70;;;19.60;99.90;;;;;;4956061;28;20260;-52
2022/06/20 06:56:51;;;;;;;5.73;1.63;;;19.70;99.90;;;;;;4952806;28;20259;-49
2022/06/20 06:59:25;;;;;;;5.80;1.40;;;19.80;99.90;;;;;;4957369;28;20646;-52
2022/06/20 07:01:57;;;;;;;6.60;1.70;;;19.70;99.90;;;;;;4952342;28;20265;-51
2022/06/20 07:04:30;;;;;;;4.53;1.43;;;19.70;99.90;;;;;;4960611;28;20280;-48
2022/06/20 07:07:05;;;;;;;5.37;1.40;;;20.00;99.90;;;;;;4954519;28;20238;-51
2022/06/20 07:09:36;;;;;;;3.07;1.33;;;20.40;99.90;;;;;;4953778;28;20245;-49
2022/06/20 07:12:09;;;;;;;4.77;1.23;;;20.50;99.90;;;;;;4953309;28;20228;-51
2022/06/20 07:14:42;;;;;;;2.67;1.10;;;20.20;99.90;;;;;;4954232;28;20271;-50
2022/06/20 07:17:19;;;;;;;3.53;1.20;;;19.70;99.90;;;;;;4954595;28;20257;-52
2022/06/20 07:19:51;;;;;;;4.80;1.60;;;19.30;99.90;;;;;;4954326;28;20237;-52
2022/06/20 07:22:22;;;;;;;4.10;1.37;;;19.80;99.90;;;;;;4956863;28;20265;-51
2022/06/20 07:24:52;;;;;;;3.23;1.20;;;20.30;99.90;;;;;;4961950;28;20253;-49
2022/06/20 07:27:27;;;;;;;4.17;1.30;;;20.30;99.90;;;;;;4955013;29;20231;-50
2022/06/20 07:30:02;;;;;;;4.37;1.50;;;20.50;99.90;;;;;;4958181;28;20276;-49
2022/06/20 07:32:35;;;;;;;2.53;1.10;;;20.50;99.90;;;;;;4954548;28;20616;-52
2022/06/20 07:35:08;;;;;;;4.57;1.63;;;21.00;99.90;;;;;;4955051;29;20226;-52
2022/06/20 07:37:43;;;;;;;3.67;1.30;;;20.50;99.90;;;;;;4954767;28;20241;-49
2022/06/20 07:40:19;;;;;;;5.40;1.33;;;20.10;99.90;;;;;;4955116;29;20238;-49
2022/06/20 07:42:53;;;;;;;3.93;1.03;;;20.40;99.90;;;;;;4939845;28;20272;-50
2022/06/20 07:45:26;;;;;;;3.13;1.40;;;20.90;99.90;;;;;;4954901;29;20232;-52
2022/06/20 07:47:56;;;;;;;4.07;1.20;;;20.40;99.90;;;;;;4953350;28;20241;-50
2022/06/20 07:50:32;;;;;;;3.33;1.43;;;20.40;99.90;;;;;;4954710;29;20234;-52
2022/06/20 07:53:10;;;;;;;4.07;1.20;;;19.90;99.90;;;;;;4952969;28;20658;-51
2022/06/20 07:55:44;;;;;;;5.53;1.50;;;19.60;99.90;;;;;;4954632;28;20258;-49
2022/06/20 07:58:21;;;;;;;1.77;0.80;;;19.00;99.90;;;;;;4954387;29;20241;-50
2022/06/20 08:00:52;;;;;;;2.30;1.10;;;18.30;99.90;;;;;;4958362;28;20283;-50
2022/06/20 08:03:26;;;;;;;6.40;1.50;;;17.70;99.90;;;;;;4955899;28;20233;-49
2022/06/20 08:05:58;;;;;;;2.70;1.10;;;17.30;99.90;;;;;;4954409;29;20225;-50
2022/06/20 08:08:35;;;;;;;2.07;1.10;;;17.10;99.90;;;;;;4954429;28;20232;-50
2022/06/20 08:11:08;;;;;;;2.10;0.90;;;17.20;99.90;;;;;;4953839;28;20231;-51
2022/06/20 08:13:43;;;;;;;3.17;1.30;;;17.30;99.90;;;;;;4954465;29;20233;-51
2022/06/20 08:16:16;;;;;;;2.87;1.40;;;17.50;99.90;;;;;;4954567;29;20250;-51
2022/06/20 08:18:44;;;;;;;2.37;1.37;;;17.70;99.90;;;;;;4953660;28;20244;-51
2022/06/20 08:21:18;;;;;;;3.10;1.53;;;17.70;99.90;;;;;;4951931;28;20224;-50
2022/06/20 08:23:53;;;;;;;3.27;1.60;;;17.70;99.90;;;;;;4953652;28;20224;-50
2022/06/20 08:26:26;;;;;;;3.17;1.60;;;18.20;99.90;;;;;;4957467;28;20225;-51
2022/06/20 08:28:57;;;;;;;4.23;1.70;;;19.40;99.90;;;;;;4958314;28;20234;-50
2022/06/20 08:31:31;;;;;;;4.63;1.60;;;19.80;99.90;;;;;;4958469;28;20238;-49
2022/06/20 08:34:05;;;;;;;5.57;2.00;;;20.00;99.90;;;;;;4957459;28;20600;-49
2022/06/20 08:36:40;;;;;;;5.13;1.93;;;20.60;99.90;;;;;;4958136;28;20237;-52
2022/06/20 08:39:19;;;;;;;3.63;1.73;;;20.60;99.90;;;;;;4957983;28;20750;-51
2022/06/20 08:42:17;;;;;;;5.30;2.17;;;20.30;99.90;;;;;;4951275;28;20244;-49
2022/06/20 08:45:21;;;;;;;4.70;2.03;;;20.00;99.90;;;;;;4950187;29;20607;-51
2022/06/20 08:48:25;;;;;;;6.17;2.50;;;19.90;99.90;;;;;;4948806;29;20245;-51
2022/06/20 08:51:30;;;;;;;5.27;2.37;;;20.10;99.90;;;;;;4945279;28;20238;-50
2022/06/20 08:54:21;;;;;;;4.33;2.30;;;20.00;99.90;;;;;;4950415;29;20602;-51
2022/06/20 08:57:00;;;;;;;5.53;1.70;;;19.80;99.90;;;;;;4948428;28;20740;-51
2022/06/20 08:59:48;;;;;;;6.17;2.27;;;20.30;99.90;;;;;;4963863;28;20229;-52
2022/06/20 09:02:51;;;;;;;6.07;2.20;;;20.60;99.90;;;;;;4953461;28;20329;-50
2022/06/20 09:05:40;;;;;;;4.77;1.83;;;21.00;99.90;;;;;;4954731;28;20242;-50
2022/06/20 09:08:37;;;;;;;4.43;2.10;;;21.70;99.90;;;;;;4951481;28;20251;-49
2022/06/20 09:11:21;;;;;;;4.27;1.83;;;21.80;99.90;;;;;;4941833;28;20581;-49
2022/06/20 09:14:08;;;;;;;5.43;2.03;;;21.40;99.90;;;;;;4952630;28;20583;-51
2022/06/20 09:16:45;;;;;;;4.87;1.97;;;21.40;99.90;;;;;;4950058;28;20627;-52
2022/06/20 09:19:31;;;;;;;5.13;2.03;;;21.40;99.90;;;;;;4948090;28;20227;-50
2022/06/20 09:22:10;;;;;;;5.63;2.20;;;21.70;99.90;;;;;;4952333;28;20269;-51
2022/06/20 09:24:51;;;;;;;6.17;2.00;;;20.90;99.90;;;;;;4953329;28;20766;-51
2022/06/20 09:27:30;;;;;;;4.40;1.80;;;20.40;99.90;;;;;;4954532;28;20641;-53
2022/06/20 09:30:06;;;;;;;5.63;2.17;;;20.40;99.90;;;;;;4951297;28;20574;-52
2022/06/20 09:33:12;;;;;;;5.50;1.70;;;21.60;99.90;;;;;;4950674;28;20313;-51
2022/06/20 09:36:23;;;;;;;6.50;2.07;;;22.70;99.90;;;;;;4952848;28;20326;-51
2022/06/20 09:39:13;;;;;;;7.20;1.80;;;23.40;99.90;;;;;;4950279;28;20239;-50
2022/06/20 09:41:50;;;;;;;4.93;2.07;;;24.10;99.90;;;;;;4952505;28;20704;-52
2022/06/20 09:44:26;;;;;;;7.63;2.03;;;23.80;99.90;;;;;;4954854;28;20243;-50
2022/06/20 09:47:07;;;;;;;7.47;2.03;;;22.90;99.90;;;;;;4951952;28;20230;-50
2022/06/20 09:49:47;;;;;;;5.27;1.80;;;22.10;99.90;;;;;;4949773;28;20238;-50
2022/06/20 09:52:24;;;;;;;5.07;2.07;;;21.40;99.90;;;;;;4953497;28;20843;-51
2022/06/20 09:55:00;;;;;;;5.50;1.80;;;21.20;99.90;;;;;;4949115;28;20314;-52
2022/06/20 09:57:40;;;;;;;3.47;2.07;;;21.30;99.90;;;;;;4951500;28;20241;-49
2022/06/20 10:00:15;;;;;;;6.63;2.03;;;21.40;99.90;;;;;;4951561;28;20234;-51
2022/06/20 10:03:00;;;;;;;7.17;2.20;;;21.20;99.90;;;;;;4953124;28;20237;-50
2022/06/20 10:05:42;;;;;;;5.00;2.10;;;21.20;99.90;;;;;;4954537;28;20597;-48
2022/06/20 10:08:20;;;;;;;5.97;2.03;;;20.60;99.90;;;;;;4951445;28;20253;-49
2022/06/20 10:10:55;;;;;;;6.33;2.00;;;21.10;99.90;;;;;;4953064;28;20334;-49
2022/06/20 10:13:32;;;;;;;5.87;1.67;;;21.70;99.90;;;;;;4950157;28;20264;-50
2022/06/20 10:16:09;;;;;;;5.20;2.00;;;21.90;99.90;;;;;;4949001;28;20239;-49
2022/06/20 10:18:47;;;;;;;8.17;1.97;;;21.70;99.90;;;;;;4947780;29;20238;-53
2022/06/20 10:21:22;;;;;;;6.20;2.20;;;21.80;99.90;;;;;;4948444;28;20231;-52
2022/06/20 10:24:16;;;;;;;4.47;1.60;;;22.20;99.90;;;;;;4948080;28;20271;-50
2022/06/20 10:27:10;;;;;;;4.67;2.03;;;22.00;99.90;;;;;;4948378;29;20322;-52
2022/06/20 10:29:56;;;;;;;4.13;1.73;;;21.90;99.90;;;;;;4947367;28;20598;-50
2022/06/20 10:32:41;;;;;;;5.20;1.80;;;22.50;99.90;;;;;;4951645;28;20288;-50
2022/06/20 10:35:16;;;;;;;4.20;1.60;;;22.40;99.90;;;;;;4953331;28;20231;-51
2022/06/20 10:37:54;;;;;;;3.63;1.63;;;22.90;99.90;;;;;;4950678;28;20218;-51
2022/06/20 10:40:30;;;;;;;5.10;1.80;;;23.00;99.90;;;;;;4951983;28;20618;-53
2022/06/20 10:43:06;;;;;;;5.37;1.80;;;22.50;99.90;;;;;;4955653;28;20247;-50
2022/06/20 10:45:44;;;;;;;4.53;1.70;;;22.40;99.90;;;;;;4955069;28;20238;-51
2022/06/20 10:48:47;;;;;;;5.70;1.73;;;23.10;99.90;;;;;;4948896;28;20246;-51
2022/06/20 10:51:29;;;;;;;5.33;1.87;;;23.20;99.90;;;;;;4951668;28;20227;-49
2022/06/20 10:54:09;;;;;;;6.10;1.90;;;23.40;99.90;;;;;;4953165;28;20238;-54
2022/06/20 10:56:45;;;;;;;4.87;1.77;;;22.90;99.90;;;;;;4953200;28;20242;-50
2022/06/20 10:59:27;;;;;;;3.83;1.40;;;23.20;99.90;;;;;;4950135;28;20310;-53
2022/06/20 11:02:10;;;;;;;5.67;1.73;;;23.20;99.90;;;;;;4949001;28;20238;-51
2022/06/20 11:04:58;;;;;;;3.93;1.40;;;23.10;99.90;;;;;;4954173;28;20374;-52
2022/06/20 11:07:37;;;;;;;4.20;1.70;;;22.20;99.90;;;;;;4952709;28;20243;-52
2022/06/20 11:10:30;;;;;;;3.50;1.60;;;22.10;99.90;;;;;;4950091;28;20639;-51
2022/06/20 11:13:07;;;;;;;3.17;1.33;;;21.90;99.90;;;;;;4952056;28;20643;-52
2022/06/20 11:15:42;;;;;;;4.47;1.20;;;21.50;99.90;;;;;;4951841;28;20257;-50
2022/06/20 11:18:32;;;;;;;3.20;1.20;;;21.40;99.90;;;;;;4948215;28;20239;-51
2022/06/20 11:21:12;;;;;;;3.20;1.23;;;21.90;99.90;;;;;;4953625;28;20746;-53
2022/06/20 11:23:51;;;;;;;3.70;1.17;;;22.90;99.90;;;;;;4955294;28;20235;-52
2022/06/20 11:26:28;;;;;;;1.23;0.90;;;23.50;99.90;;;;;;4951466;28;20306;-52
2022/06/20 11:29:17;;;;;;;2.23;1.00;;;23.70;99.90;;;;;;4947519;28;20239;-52
2022/06/20 11:31:55;;;;;;;2.40;1.20;;;24.70;99.90;;;;;;4949628;28;20299;-49
2022/06/20 11:34:51;;;;;;;3.97;1.10;;;25.40;99.90;;;;;;4951137;28;20294;-51
2022/06/20 11:37:32;;;;;;;3.20;1.20;;;25.50;99.90;;;;;;4949194;28;20285;-53
2022/06/20 11:40:18;;;;;;;3.63;1.07;;;24.70;99.90;;;;;;4947291;28;20270;-53
2022/06/20 11:43:05;;;;;;;3.50;1.23;;;23.20;99.90;;;;;;4952462;28;20347;-53
2022/06/20 11:45:50;;;;;;;3.27;1.30;;;22.10;99.90;;;;;;4950899;28;20293;-49
2022/06/20 11:48:44;;;;;;;3.70;0.80;;;21.80;99.90;;;;;;4949623;28;20649;-53
2022/06/20 11:51:19;;;;;;;2.13;1.20;;;22.50;99.90;;;;;;4953243;28;20273;-52
2022/06/20 11:54:04;;;;;;;2.37;1.00;;;22.10;99.90;;;;;;4951904;28;20230;-53
2022/06/20 11:56:41;;;;;;;2.97;1.10;;;21.90;99.90;;;;;;4950507;28;20239;-51
2022/06/20 11:59:29;;;;;;;1.90;1.10;;;21.60;99.90;;;;;;4947703;28;20234;-52
2022/06/20 12:02:16;;;;;;;2.37;1.00;;;21.00;99.90;;;;;;4949712;28;20823;-52
2022/06/20 12:04:54;;;;;;;3.50;1.30;;;20.60;99.90;;;;;;4949270;28;20257;-51
2022/06/20 12:07:47;;;;;;;3.53;1.20;;;20.40;99.90;;;;;;4949947;28;20577;-54
2022/06/20 12:10:22;;;;;;;1.90;1.13;;;20.70;99.90;;;;;;4949578;28;20898;-52
2022/06/20 12:13:00;;;;;;;2.10;1.10;;;21.30;99.90;;;;;;4952826;28;20762;-53
2022/06/20 12:15:54;;;;;;;4.23;1.20;;;21.90;99.90;;;;;;4950832;28;20762;-52
2022/06/20 12:18:40;;;;;;;3.83;1.30;;;22.50;99.90;;;;;;4944575;28;20742;-52
2022/06/20 12:24:06;;;;;;;1.47;1.07;;;22.20;99.90;;;;;;4952723;28;20614;-52
2022/06/20 12:26:39;;;;;;;1.73;0.90;;;22.20;99.90;;;;;;4950664;28;20730;-52
2022/06/20 12:29:16;;;;;;;2.40;1.00;;;22.10;99.90;;;;;;4951045;28;20321;-52
2022/06/20 12:31:48;;;;;;;2.87;1.13;;;21.70;99.90;;;;;;4951111;28;20317;-52
2022/06/20 12:34:35;;;;;;;4.20;1.20;;;21.30;99.90;;;;;;4951562;28;20254;-54
2022/06/20 12:37:11;;;;;;;2.07;1.10;;;21.00;99.90;;;;;;4953074;28;20238;-51
2022/06/20 12:39:44;;;;;;;2.23;0.90;;;20.60;99.90;;;;;;4944247;28;20233;-51
2022/06/20 12:42:20;;;;;;;1.50;0.97;;;20.70;99.90;;;;;;4947367;28;20234;-53
2022/06/20 12:45:02;;;;;;;1.87;1.00;;;21.10;99.90;;;;;;4948958;28;20233;-53
2022/06/20 12:48:01;;;;;;;4.30;1.23;;;21.40;99.90;;;;;;4951219;28;20256;-54
2022/06/20 12:50:36;;;;;;;3.50;1.00;;;21.20;99.90;;;;;;4942985;28;20266;-54
2022/06/20 12:53:18;;;;;;;5.13;1.10;;;20.70;99.90;;;;;;4952570;28;20581;-51
2022/06/20 12:56:01;;;;;;;3.20;1.50;;;20.50;99.90;;;;;;4949252;28;20242;-53
2022/06/20 12:58:54;;;;;;;5.17;2.03;;;20.40;99.90;;;;;;4947478;28;20298;-53
2022/06/20 13:01:32;;;;;;;5.90;1.33;;;20.50;99.90;;;;;;4946092;28;20302;-53
2022/06/20 13:04:28;;;;;;;3.83;1.30;;;20.50;99.90;;;;;;4945833;28;20250;-51
2022/06/20 13:07:28;;;;;;;2.47;1.20;;;20.10;99.90;;;;;;4945882;28;20232;-51
2022/06/20 13:10:22;;;;;;;3.70;1.40;;;19.90;99.90;;;;;;4938793;28;20732;-52
2022/06/20 13:13:15;;;;;;;5.87;1.93;;;19.70;99.90;;;;;;4943476;28;20972;-53
2022/06/20 13:15:50;;;;;;;4.07;1.37;;;19.80;99.90;;;;;;4950240;29;20258;-51
2022/06/20 13:18:38;;;;;;;3.23;1.77;;;19.70;99.90;;;;;;4947060;29;20242;-51
2022/06/20 13:21:16;;;;;;;4.63;1.70;;;19.90;99.90;;;;;;4950184;28;20747;-50
2022/06/20 13:24:14;;;;;;;3.20;1.40;;;20.10;99.90;;;;;;4949671;28;20226;-52
2022/06/20 13:26:53;;;;;;;3.83;1.57;;;20.70;99.90;;;;;;4949364;28;20330;-51
2022/06/20 13:29:33;;;;;;;3.47;1.60;;;21.00;99.90;;;;;;4946978;28;20239;-51
2022/06/20 13:32:05;;;;;;;3.43;1.47;;;20.80;99.90;;;;;;4950371;28;20722;-52
2022/06/20 13:34:50;;;;;;;3.60;1.40;;;20.50;99.90;;;;;;4954048;28;20273;-50
2022/06/20 13:37:33;;;;;;;4.33;1.40;;;20.20;99.90;;;;;;4947006;28;20919;-50
2022/06/20 13:40:15;;;;;;;3.40;1.23;;;20.10;99.90;;;;;;4941363;28;20239;-51
2022/06/20 13:42:48;;;;;;;2.33;1.20;;;20.10;99.90;;;;;;4944649;28;20777;-50
2022/06/20 13:45:23;;;;;;;4.07;1.30;;;20.00;99.90;;;;;;4946347;28;20238;-51
2022/06/20 13:47:59;;;;;;;4.10;1.33;;;19.80;99.90;;;;;;4940829;28;20230;-52
2022/06/20 13:50:35;;;;;;;2.33;1.20;;;19.70;99.90;;;;;;4943424;28;20260;-51